Time;durP1;ratioP1;P1;durP2;ratioP2;P2;SDS_P1;SDS_P2;PMS_P1;PMS_P2;Temp;Humidity;BMP_temperature;BMP_pressure;BME280_temperature;BME280_humidity;BME280_pressure;Samples;Min_cycle;Max_cycle;Signal;HPM_P1;HPM_P2
2022/08/21 00:00:42;;;;;;;3.97;3.00;;;17.40;99.20;;;;;;5011789;28;20199;-62
2022/08/21 00:03:10;;;;;;;2.90;2.40;;;17.60;99.60;;;;;;5010761;28;20464;-62
2022/08/21 00:05:39;;;;;;;2.97;2.50;;;17.50;99.80;;;;;;5012394;28;20186;-61
2022/08/21 00:08:06;;;;;;;3.58;2.70;;;17.40;99.90;;;;;;5010046;28;20206;-61
2022/08/21 00:10:32;;;;;;;4.15;2.78;;;17.40;99.90;;;;;;5014130;28;20594;-61
2022/08/21 00:12:58;;;;;;;5.10;2.65;;;17.50;99.90;;;;;;5012549;28;20537;-61
2022/08/21 00:15:27;;;;;;;2.80;2.60;;;17.40;99.90;;;;;;5011926;28;20190;-61
2022/08/21 00:17:54;;;;;;;3.08;2.75;;;17.40;99.90;;;;;;5010877;28;20201;-62
2022/08/21 00:20:20;;;;;;;7.00;3.13;;;17.20;99.90;;;;;;5013072;28;20187;-61
2022/08/21 00:22:46;;;;;;;2.72;2.28;;;17.20;99.90;;;;;;5012356;28;20214;-61
2022/08/21 00:25:14;;;;;;;3.00;2.67;;;17.20;99.90;;;;;;5011679;28;20183;-62
2022/08/21 00:27:41;;;;;;;2.92;2.60;;;17.20;99.90;;;;;;5015798;28;20217;-61
2022/08/21 00:30:08;;;;;;;3.70;2.75;;;17.10;99.90;;;;;;5004336;28;20202;-61
2022/08/21 00:32:37;;;;;;;4.55;2.83;;;17.00;99.90;;;;;;5012534;28;20175;-61
2022/08/21 00:35:04;;;;;;;3.85;2.80;;;17.00;99.90;;;;;;5008068;28;20175;-61
2022/08/21 00:37:29;;;;;;;2.88;2.58;;;16.80;99.90;;;;;;5016942;28;20636;-62
2022/08/21 00:39:55;;;;;;;2.80;2.60;;;16.80;99.90;;;;;;5012776;28;20211;-62
2022/08/21 00:42:21;;;;;;;3.43;2.90;;;16.60;99.90;;;;;;5012159;28;20613;-62
2022/08/21 00:44:49;;;;;;;4.05;2.60;;;16.60;99.90;;;;;;5012867;28;20527;-62
2022/08/21 00:47:16;;;;;;;2.70;2.50;;;16.90;99.90;;;;;;5011719;28;20207;-62
2022/08/21 00:49:42;;;;;;;2.97;2.30;;;16.70;99.90;;;;;;5013148;28;20245;-62
2022/08/21 00:52:12;;;;;;;4.73;3.17;;;16.50;99.90;;;;;;5010328;28;20215;-62
2022/08/21 00:54:40;;;;;;;2.88;2.20;;;16.80;99.90;;;;;;5013392;28;20194;-62
2022/08/21 00:57:13;;;;;;;4.38;2.97;;;16.30;99.90;;;;;;5011863;28;20676;-62
2022/08/21 00:59:41;;;;;;;3.58;2.65;;;16.50;99.90;;;;;;5008621;28;20206;-63
2022/08/21 01:02:08;;;;;;;3.13;2.83;;;16.60;99.90;;;;;;5008759;28;20226;-62
2022/08/21 01:04:34;;;;;;;2.67;2.47;;;16.30;99.90;;;;;;5012018;28;20261;-62
2022/08/21 01:07:01;;;;;;;2.88;2.60;;;16.40;99.90;;;;;;5010082;28;20203;-62
2022/08/21 01:09:26;;;;;;;3.50;2.72;;;16.50;99.90;;;;;;5008094;28;20218;-63
2022/08/21 01:11:52;;;;;;;2.77;2.57;;;16.40;99.90;;;;;;5012288;28;20192;-62
2022/08/21 01:14:19;;;;;;;2.63;2.43;;;16.30;99.90;;;;;;5011100;28;20254;-63
2022/08/21 01:16:47;;;;;;;2.92;2.72;;;16.60;99.90;;;;;;5009883;28;20665;-63
2022/08/21 01:19:14;;;;;;;4.65;3.00;;;16.40;99.90;;;;;;5011500;28;20788;-62
2022/08/21 01:21:39;;;;;;;5.93;2.50;;;16.50;99.90;;;;;;5008953;28;20218;-62
2022/08/21 01:24:05;;;;;;;5.33;2.80;;;16.40;99.90;;;;;;5011079;28;20676;-62
2022/08/21 01:26:34;;;;;;;5.17;3.10;;;16.50;99.90;;;;;;5006703;28;20661;-62
2022/08/21 01:29:05;;;;;;;3.47;3.10;;;16.20;99.90;;;;;;5015039;28;20206;-63
2022/08/21 01:31:32;;;;;;;3.42;3.13;;;16.30;99.90;;;;;;5002436;28;20183;-62
2022/08/21 01:33:58;;;;;;;3.92;2.83;;;16.60;99.90;;;;;;5010223;28;20171;-62
2022/08/21 01:36:24;;;;;;;3.80;2.50;;;16.50;99.90;;;;;;5011293;28;20186;-62
2022/08/21 01:38:50;;;;;;;3.20;2.55;;;16.10;99.90;;;;;;5011764;28;20194;-62
2022/08/21 01:41:16;;;;;;;3.93;2.77;;;15.90;99.90;;;;;;5009238;28;20209;-63
2022/08/21 01:43:42;;;;;;;2.97;2.67;;;16.20;99.90;;;;;;5011537;28;20673;-63
2022/08/21 01:46:09;;;;;;;2.97;2.30;;;16.30;99.90;;;;;;5008555;28;20187;-61
2022/08/21 01:48:34;;;;;;;3.65;3.35;;;16.30;99.90;;;;;;5010541;28;20370;-63
2022/08/21 01:51:00;;;;;;;3.10;2.80;;;16.10;99.90;;;;;;5010506;28;20607;-63
2022/08/21 01:53:26;;;;;;;2.93;2.60;;;15.90;99.90;;;;;;5011646;28;20191;-63
2022/08/21 01:55:51;;;;;;;4.43;3.30;;;16.00;99.90;;;;;;5011653;28;20179;-63
2022/08/21 01:58:17;;;;;;;3.77;2.70;;;16.20;99.90;;;;;;5011023;28;20461;-62
2022/08/21 02:00:43;;;;;;;5.07;2.67;;;15.90;99.90;;;;;;5005881;28;20218;-62
2022/08/21 02:03:08;;;;;;;6.13;2.80;;;16.10;99.90;;;;;;5007969;28;20207;-63
2022/08/21 02:05:34;;;;;;;2.97;2.77;;;15.90;99.90;;;;;;5006157;28;20240;-63
2022/08/21 02:08:00;;;;;;;2.90;2.27;;;16.10;99.90;;;;;;5009825;28;20207;-63
2022/08/21 02:10:29;;;;;;;4.20;3.10;;;16.00;99.90;;;;;;5012638;28;21264;-63
2022/08/21 02:12:56;;;;;;;2.58;2.45;;;16.10;99.90;;;;;;5014022;28;20182;-63
2022/08/21 02:15:22;;;;;;;2.95;2.75;;;15.80;99.90;;;;;;5011053;28;20219;-64
2022/08/21 02:17:59;;;;;;;3.38;3.08;;;16.00;99.90;;;;;;5009509;28;20186;-63
2022/08/21 02:20:31;;;;;;;3.10;2.80;;;15.70;99.90;;;;;;5012173;28;20183;-62
2022/08/21 02:22:57;;;;;;;5.18;2.60;;;15.80;99.90;;;;;;5007928;28;20248;-63
2022/08/21 02:25:25;;;;;;;3.70;3.30;;;15.60;99.90;;;;;;5009985;28;20269;-62
2022/08/21 02:27:51;;;;;;;4.32;3.40;;;15.60;99.90;;;;;;5009968;28;20268;-62
2022/08/21 02:30:39;;;;;;;4.37;3.30;;;15.50;99.90;;;;;;5008242;28;20206;-63
2022/08/21 02:33:05;;;;;;;3.10;2.90;;;15.90;99.90;;;;;;5010048;28;20438;-62
2022/08/21 02:35:31;;;;;;;4.50;2.85;;;15.50;99.90;;;;;;5010719;28;20236;-63
2022/08/21 02:38:01;;;;;;;3.10;2.90;;;15.70;99.90;;;;;;5004201;28;20266;-63
2022/08/21 02:40:30;;;;;;;4.68;2.83;;;15.70;99.90;;;;;;5008234;28;20264;-63
2022/08/21 02:42:56;;;;;;;3.20;2.90;;;15.40;99.90;;;;;;5008463;28;20322;-63
2022/08/21 02:45:22;;;;;;;3.53;3.22;;;15.40;99.90;;;;;;5005267;28;20187;-63
2022/08/21 02:47:53;;;;;;;3.37;3.07;;;15.70;99.90;;;;;;5006406;28;20233;-62
2022/08/21 02:50:28;;;;;;;3.40;3.10;;;15.60;99.90;;;;;;5012200;28;20195;-63
2022/08/21 02:52:54;;;;;;;2.65;2.45;;;15.50;99.90;;;;;;5009743;28;20285;-63
2022/08/21 02:55:21;;;;;;;4.10;2.90;;;15.40;99.90;;;;;;5010153;28;20700;-63
2022/08/21 02:57:48;;;;;;;3.88;3.50;;;15.40;99.90;;;;;;5008549;28;20445;-63
2022/08/21 03:00:14;;;;;;;3.13;2.92;;;15.30;99.90;;;;;;5012466;28;20210;-63
2022/08/21 03:02:40;;;;;;;3.10;2.80;;;15.30;99.90;;;;;;5006739;28;20276;-63
2022/08/21 03:05:08;;;;;;;4.20;3.33;;;15.40;99.90;;;;;;5010049;28;20218;-63
2022/08/21 03:07:34;;;;;;;3.50;3.20;;;15.50;99.90;;;;;;5009198;28;20476;-63
2022/08/21 03:10:00;;;;;;;6.50;3.33;;;15.40;99.90;;;;;;5010458;28;20199;-63
2022/08/21 03:12:26;;;;;;;4.35;3.60;;;15.50;99.90;;;;;;5010439;28;20178;-63
2022/08/21 03:14:51;;;;;;;5.40;3.23;;;15.50;99.90;;;;;;5011200;28;20186;-63
2022/08/21 03:17:17;;;;;;;3.90;3.50;;;15.30;99.90;;;;;;5010438;28;20197;-63
2022/08/21 03:19:42;;;;;;;3.33;2.90;;;15.30;99.90;;;;;;5008200;28;20290;-63
2022/08/21 03:22:08;;;;;;;4.67;3.50;;;15.30;99.90;;;;;;5008186;28;20187;-63
2022/08/21 03:24:34;;;;;;;4.00;3.60;;;15.20;99.90;;;;;;5010168;28;20183;-63
2022/08/21 03:26:59;;;;;;;3.50;2.73;;;15.20;99.90;;;;;;5007953;28;20233;-63
2022/08/21 03:29:25;;;;;;;3.07;2.80;;;15.40;99.90;;;;;;5009905;28;20191;-63
2022/08/21 03:31:53;;;;;;;5.70;3.20;;;15.20;99.90;;;;;;5010424;28;20190;-63
2022/08/21 03:34:20;;;;;;;3.67;3.17;;;15.30;99.90;;;;;;5013127;28;20266;-62
2022/08/21 03:36:47;;;;;;;3.10;2.90;;;15.10;99.90;;;;;;5007834;28;20190;-63
2022/08/21 03:39:13;;;;;;;4.43;3.33;;;15.20;99.90;;;;;;5008712;28;20225;-63
2022/08/21 03:41:39;;;;;;;3.22;2.90;;;15.40;99.90;;;;;;5009023;28;20262;-63
2022/08/21 03:44:04;;;;;;;3.10;2.83;;;15.20;99.90;;;;;;5008570;28;20270;-62
2022/08/21 03:46:30;;;;;;;5.17;3.50;;;15.00;99.90;;;;;;5009171;28;20179;-63
2022/08/21 03:48:55;;;;;;;3.70;3.40;;;15.40;99.90;;;;;;5008879;28;20332;-62
2022/08/21 03:51:22;;;;;;;3.53;2.70;;;15.20;99.90;;;;;;5012245;28;20214;-60
2022/08/21 03:53:47;;;;;;;3.45;2.90;;;15.10;99.90;;;;;;5013137;28;20724;-60
2022/08/21 03:56:13;;;;;;;4.20;3.30;;;15.10;99.90;;;;;;5012996;28;20322;-60
2022/08/21 03:58:38;;;;;;;4.20;3.40;;;15.20;99.90;;;;;;5012620;28;20233;-60
2022/08/21 04:01:06;;;;;;;3.73;3.30;;;15.00;99.90;;;;;;5010507;28;20183;-60
2022/08/21 04:03:34;;;;;;;3.40;3.10;;;15.10;99.90;;;;;;5012421;28;20191;-60
2022/08/21 04:05:59;;;;;;;3.10;2.80;;;14.80;99.90;;;;;;5013143;28;20194;-60
2022/08/21 04:08:25;;;;;;;3.30;3.00;;;14.90;99.90;;;;;;5009943;28;20223;-62
2022/08/21 04:10:53;;;;;;;3.77;3.47;;;14.90;99.90;;;;;;5011490;28;20215;-63
2022/08/21 04:13:20;;;;;;;4.38;3.00;;;14.80;99.90;;;;;;5011569;28;20442;-63
2022/08/21 04:15:46;;;;;;;5.35;3.42;;;14.90;99.90;;;;;;5011441;28;20183;-61
2022/08/21 04:18:12;;;;;;;3.60;3.30;;;14.90;99.90;;;;;;5012004;28;20264;-61
2022/08/21 04:20:39;;;;;;;4.10;3.58;;;14.70;99.90;;;;;;5015283;28;20457;-60
2022/08/21 04:23:06;;;;;;;3.45;3.08;;;14.90;99.90;;;;;;5003724;28;20191;-61
2022/08/21 04:25:31;;;;;;;4.75;2.95;;;15.10;99.90;;;;;;5013164;28;20648;-61
2022/08/21 04:27:58;;;;;;;4.00;3.07;;;14.90;99.90;;;;;;5008980;28;20305;-62
2022/08/21 04:30:25;;;;;;;3.38;3.08;;;14.90;99.90;;;;;;5012198;28;20186;-59
2022/08/21 04:32:50;;;;;;;4.50;3.33;;;15.10;99.90;;;;;;5007759;28;20238;-62
2022/08/21 04:35:19;;;;;;;5.93;3.77;;;14.90;99.90;;;;;;5006382;28;20187;-62
2022/08/21 04:37:45;;;;;;;3.78;3.00;;;14.90;99.90;;;;;;5007055;28;20192;-62
2022/08/21 04:40:14;;;;;;;3.40;3.07;;;15.00;99.90;;;;;;5011177;28;20209;-62
2022/08/21 04:42:45;;;;;;;3.30;3.00;;;14.70;99.90;;;;;;5012289;28;20664;-62
2022/08/21 04:45:26;;;;;;;3.83;3.33;;;15.00;99.90;;;;;;5003088;28;20673;-62
2022/08/21 04:47:53;;;;;;;3.95;3.35;;;14.80;99.90;;;;;;5010566;28;20664;-62
2022/08/21 04:50:24;;;;;;;3.50;3.20;;;15.00;99.90;;;;;;5011599;28;20195;-60
2022/08/21 04:52:50;;;;;;;4.60;3.40;;;14.80;99.90;;;;;;5017145;28;20190;-61
2022/08/21 04:55:17;;;;;;;2.97;2.67;;;14.70;99.90;;;;;;5009603;28;20191;-57
2022/08/21 04:57:43;;;;;;;3.42;3.13;;;14.90;99.90;;;;;;5006998;28;20245;-57
2022/08/21 05:00:10;;;;;;;3.90;3.50;;;14.90;99.90;;;;;;5007376;28;20210;-58
2022/08/21 05:02:37;;;;;;;5.47;3.85;;;15.10;99.90;;;;;;5007812;28;20652;-60
2022/08/21 05:05:04;;;;;;;3.10;2.90;;;14.90;99.90;;;;;;5005314;28;20187;-58
2022/08/21 05:07:31;;;;;;;4.05;3.10;;;14.90;99.90;;;;;;5002893;28;20211;-58
2022/08/21 05:09:58;;;;;;;4.63;3.80;;;14.80;99.90;;;;;;5006916;28;20214;-59
2022/08/21 05:12:24;;;;;;;3.65;3.35;;;14.80;99.90;;;;;;5009755;28;20182;-58
2022/08/21 05:14:50;;;;;;;3.10;2.90;;;15.00;99.90;;;;;;5005984;28;20187;-57
2022/08/21 05:17:16;;;;;;;3.67;3.30;;;15.00;99.90;;;;;;5004779;28;20187;-59
2022/08/21 05:19:41;;;;;;;5.57;3.83;;;14.80;99.90;;;;;;5005941;28;20199;-59
2022/08/21 05:22:08;;;;;;;3.83;3.10;;;15.10;99.90;;;;;;5005876;28;20175;-60
2022/08/21 05:24:33;;;;;;;3.53;3.22;;;14.90;99.90;;;;;;5005222;28;20179;-58
2022/08/21 05:26:59;;;;;;;4.77;3.27;;;15.00;99.90;;;;;;5007556;28;20290;-59
2022/08/21 05:29:25;;;;;;;3.77;3.47;;;15.00;99.90;;;;;;5009384;28;20206;-60
2022/08/21 05:31:51;;;;;;;3.80;2.73;;;15.20;99.90;;;;;;5008269;28;20190;-59
2022/08/21 05:34:22;;;;;;;3.85;3.55;;;15.20;99.90;;;;;;5014771;28;20217;-59
2022/08/21 05:36:48;;;;;;;5.07;3.20;;;15.30;99.90;;;;;;5014590;28;20178;-60
2022/08/21 05:39:13;;;;;;;3.17;2.88;;;15.40;99.90;;;;;;5010455;28;20199;-60
2022/08/21 05:41:39;;;;;;;5.07;3.03;;;15.80;99.90;;;;;;5009767;28;20541;-60
2022/08/21 05:44:05;;;;;;;3.80;2.67;;;15.60;99.90;;;;;;5007134;28;20175;-59
2022/08/21 05:46:30;;;;;;;4.50;3.40;;;16.00;99.90;;;;;;5005033;28;20195;-60
2022/08/21 05:48:56;;;;;;;3.77;3.13;;;16.10;99.90;;;;;;5010854;28;20210;-59
2022/08/21 05:51:22;;;;;;;3.87;3.57;;;16.00;99.90;;;;;;5009531;28;20194;-60
2022/08/21 05:53:48;;;;;;;5.77;3.33;;;16.10;99.90;;;;;;5005207;28;20257;-59
2022/08/21 05:56:14;;;;;;;3.42;3.13;;;16.10;99.90;;;;;;5008682;28;20221;-60
2022/08/21 05:58:40;;;;;;;3.80;3.50;;;16.30;99.90;;;;;;5007711;28;20213;-59
2022/08/21 06:01:08;;;;;;;3.60;3.30;;;16.60;99.90;;;;;;5023837;28;20239;-60
2022/08/21 06:03:37;;;;;;;3.78;3.47;;;16.60;99.90;;;;;;5008643;28;20203;-60
2022/08/21 06:06:02;;;;;;;3.75;2.67;;;16.50;99.90;;;;;;5004820;28;20292;-60
2022/08/21 06:08:29;;;;;;;3.83;3.43;;;16.80;99.90;;;;;;5001245;28;20301;-60
2022/08/21 06:10:56;;;;;;;3.95;3.58;;;16.80;99.90;;;;;;5010554;28;20446;-58
2022/08/21 06:13:22;;;;;;;3.95;3.20;;;17.00;99.90;;;;;;5008953;28;20187;-58
2022/08/21 06:15:50;;;;;;;3.13;2.65;;;17.10;99.90;;;;;;5003572;28;20272;-58
2022/08/21 06:18:16;;;;;;;3.50;3.20;;;17.40;99.90;;;;;;5008470;28;20249;-58
2022/08/21 06:20:43;;;;;;;4.68;3.22;;;17.20;99.90;;;;;;5010379;28;20196;-59
2022/08/21 06:23:08;;;;;;;3.38;3.08;;;17.50;99.90;;;;;;5017765;28;20861;-58
2022/08/21 06:25:35;;;;;;;4.20;3.13;;;17.40;99.90;;;;;;5010698;28;20257;-58
2022/08/21 06:28:06;;;;;;;3.28;2.97;;;17.60;99.90;;;;;;5002376;28;20556;-58
2022/08/21 06:30:32;;;;;;;4.38;3.58;;;17.80;99.90;;;;;;5007564;28;20211;-58
2022/08/21 06:32:58;;;;;;;6.55;4.60;;;17.80;99.90;;;;;;5007122;28;20191;-59
2022/08/21 06:35:24;;;;;;;4.27;3.87;;;17.90;99.90;;;;;;4999800;28;20603;-58
2022/08/21 06:37:50;;;;;;;3.63;3.33;;;17.90;99.90;;;;;;5006785;28;20194;-58
2022/08/21 06:40:16;;;;;;;3.67;3.38;;;17.90;99.90;;;;;;5012543;28;20195;-58
2022/08/21 06:42:42;;;;;;;3.80;3.50;;;18.10;99.90;;;;;;5016783;28;20192;-58
2022/08/21 06:45:08;;;;;;;4.73;3.40;;;18.20;99.90;;;;;;5007967;28;20190;-59
2022/08/21 06:47:33;;;;;;;3.28;2.97;;;18.30;99.90;;;;;;5003529;28;20216;-60
2022/08/21 06:49:59;;;;;;;3.50;3.20;;;18.40;99.60;;;;;;5008498;28;20281;-59
2022/08/21 06:52:24;;;;;;;4.50;3.50;;;18.70;99.50;;;;;;5007862;28;20268;-60
2022/08/21 06:54:50;;;;;;;5.13;3.30;;;19.00;99.10;;;;;;5008153;28;21469;-59
2022/08/21 06:57:16;;;;;;;4.80;4.00;;;19.20;98.30;;;;;;5005307;28;20233;-59
2022/08/21 06:59:41;;;;;;;4.20;3.80;;;19.50;97.50;;;;;;5004359;28;20294;-58
2022/08/21 07:02:07;;;;;;;4.50;3.40;;;19.70;96.80;;;;;;5008417;28;20199;-58
2022/08/21 07:04:33;;;;;;;5.18;4.05;;;19.80;96.20;;;;;;5009077;28;20290;-58
2022/08/21 07:06:58;;;;;;;4.67;3.93;;;20.20;95.60;;;;;;5015084;28;20305;-58
2022/08/21 07:09:24;;;;;;;4.40;3.80;;;20.50;94.70;;;;;;4999212;28;20207;-59
2022/08/21 07:11:53;;;;;;;3.83;3.47;;;21.10;94.10;;;;;;5006526;28;20794;-59
2022/08/21 07:14:18;;;;;;;5.03;3.67;;;23.00;91.50;;;;;;5007835;28;20233;-59
2022/08/21 07:16:44;;;;;;;3.40;3.10;;;25.10;83.10;;;;;;5001836;28;20974;-58
2022/08/21 07:19:09;;;;;;;5.50;3.23;;;27.60;74.20;;;;;;5006163;28;20257;-59
2022/08/21 07:21:35;;;;;;;6.27;3.40;;;29.90;65.10;;;;;;5003461;28;20217;-59
2022/08/21 07:24:01;;;;;;;4.80;3.90;;;32.50;57.60;;;;;;5008127;28;20254;-61
2022/08/21 07:26:26;;;;;;;3.70;3.27;;;33.80;51.30;;;;;;5006340;28;20228;-60
2022/08/21 07:28:52;;;;;;;3.80;3.20;;;33.70;50.80;;;;;;5004953;28;20225;-60
2022/08/21 07:31:21;;;;;;;3.47;3.17;;;35.70;47.30;;;;;;5006966;28;20241;-61
2022/08/21 07:33:47;;;;;;;3.67;3.17;;;37.20;44.20;;;;;;5012848;28;20995;-61
2022/08/21 07:36:13;;;;;;;2.90;2.70;;;34.60;44.80;;;;;;5004672;28;20950;-61
2022/08/21 07:38:39;;;;;;;3.77;3.37;;;35.20;45.00;;;;;;5009777;28;20509;-61
2022/08/21 07:41:25;;;;;;;4.30;3.70;;;34.00;44.00;;;;;;5006875;28;20820;-61
2022/08/21 07:43:50;;;;;;;3.80;3.50;;;35.40;44.00;;;;;;5004820;28;20442;-61
2022/08/21 07:46:16;;;;;;;3.77;3.40;;;35.70;42.40;;;;;;5006532;28;20865;-61
2022/08/21 07:48:42;;;;;;;3.93;3.50;;;37.60;41.30;;;;;;5007704;28;20301;-61
2022/08/21 07:51:11;;;;;;;3.93;3.30;;;39.30;38.60;;;;;;5005136;28;20549;-62
2022/08/21 07:53:37;;;;;;;4.00;3.60;;;40.50;35.90;;;;;;5002520;28;20441;-62
2022/08/21 07:56:05;;;;;;;5.00;3.50;;;40.70;35.20;;;;;;5004882;28;20442;-62
2022/08/21 07:58:31;;;;;;;3.97;3.67;;;41.00;33.50;;;;;;5008433;28;20512;-62
2022/08/21 08:00:57;;;;;;;3.60;3.17;;;39.40;33.20;;;;;;5007757;28;20445;-62
2022/08/21 08:03:23;;;;;;;3.40;3.20;;;41.10;33.50;;;;;;5004012;28;20461;-60
2022/08/21 08:05:49;;;;;;;6.93;6.33;;;42.40;32.00;;;;;;5013155;28;20640;-62
2022/08/21 08:08:15;;;;;;;4.90;3.90;;;41.80;31.90;;;;;;5010062;28;20495;-61
2022/08/21 08:10:41;;;;;;;4.07;3.67;;;42.40;30.50;;;;;;5010755;28;20179;-62
2022/08/21 08:13:06;;;;;;;3.50;3.20;;;42.20;30.30;;;;;;5008499;28;20191;-62
2022/08/21 08:15:32;;;;;;;6.27;5.00;;;42.10;30.20;;;;;;5010314;28;20468;-61
2022/08/21 08:17:58;;;;;;;3.87;3.60;;;40.40;30.10;;;;;;5007722;28;20187;-61
2022/08/21 08:20:26;;;;;;;4.53;4.13;;;40.00;32.00;;;;;;5006860;28;20660;-61
2022/08/21 08:22:52;;;;;;;3.93;3.63;;;39.10;31.20;;;;;;5010702;28;20230;-61
2022/08/21 08:25:19;;;;;;;4.17;3.60;;;39.60;32.60;;;;;;5003688;28;20491;-61
2022/08/21 08:27:45;;;;;;;3.90;3.50;;;40.10;31.60;;;;;;5010873;28;20465;-61
2022/08/21 08:30:13;;;;;;;4.67;4.20;;;39.80;30.30;;;;;;5004727;28;20480;-61
2022/08/21 08:32:39;;;;;;;4.40;4.00;;;38.20;32.40;;;;;;5010697;28;20182;-61
2022/08/21 08:35:06;;;;;;;4.30;3.50;;;37.90;32.60;;;;;;5009888;28;20425;-61
2022/08/21 08:37:33;;;;;;;4.10;3.70;;;39.40;32.70;;;;;;5006283;28;20449;-67
2022/08/21 08:39:58;;;;;;;8.70;4.60;;;39.10;30.90;;;;;;5012355;28;20709;-68
2022/08/21 08:42:34;;;;;;;4.27;3.97;;;39.00;30.90;;;;;;5005699;28;20966;-68
2022/08/21 08:45:11;;;;;;;5.70;4.30;;;40.60;31.00;;;;;;5008312;28;20182;-65
2022/08/21 08:47:42;;;;;;;4.50;3.50;;;41.60;30.00;;;;;;5005712;28;20468;-65
2022/08/21 08:50:23;;;;;;;4.40;4.00;;;42.10;28.70;;;;;;5010739;28;20851;-65
2022/08/21 08:52:57;;;;;;;5.37;4.50;;;41.60;28.80;;;;;;5007040;28;20431;-64
2022/08/21 08:55:44;;;;;;;5.23;4.60;;;41.90;28.80;;;;;;5009047;28;20812;-64
2022/08/21 08:58:21;;;;;;;4.83;4.13;;;41.60;29.00;;;;;;5011187;28;20465;-64
2022/08/21 09:00:49;;;;;;;6.27;4.53;;;38.20;29.90;;;;;;5006717;28;20533;-64
2022/08/21 09:03:16;;;;;;;4.00;3.60;;;38.00;31.90;;;;;;5007410;28;20465;-64
2022/08/21 09:05:47;;;;;;;7.10;4.47;;;39.50;30.80;;;;;;5001762;28;20449;-64
2022/08/21 09:08:48;;;;;;;5.63;4.20;;;40.40;30.00;;;;;;5006207;28;20528;-65
2022/08/21 09:11:26;;;;;;;3.90;3.40;;;40.50;29.10;;;;;;5003880;28;21150;-64
2022/08/21 09:14:34;;;;;;;4.83;3.50;;;39.90;28.80;;;;;;5008343;28;21157;-64
2022/08/21 09:17:21;;;;;;;4.03;3.67;;;39.40;29.50;;;;;;4987611;28;20438;-64
2022/08/21 09:20:17;;;;;;;5.00;4.10;;;39.50;29.30;;;;;;5010253;28;20461;-64
2022/08/21 09:23:05;;;;;;;3.53;3.23;;;38.30;30.00;;;;;;5007110;28;20488;-64
2022/08/21 09:26:14;;;;;;;3.83;3.53;;;35.90;31.50;;;;;;5000894;28;20529;-64
2022/08/21 09:28:41;;;;;;;4.30;3.90;;;33.90;35.80;;;;;;4994987;28;20514;-64
2022/08/21 09:31:25;;;;;;;5.00;3.77;;;32.80;36.80;;;;;;5005120;28;20520;-65
2022/08/21 09:34:08;;;;;;;5.20;3.97;;;32.30;37.00;;;;;;5006442;28;20561;-65
2022/08/21 09:36:33;;;;;;;4.10;3.70;;;31.30;40.20;;;;;;5010622;28;20471;-65
2022/08/21 09:38:59;;;;;;;4.20;3.73;;;30.40;42.60;;;;;;5010344;28;21030;-63
2022/08/21 09:41:30;;;;;;;4.90;4.03;;;29.90;43.70;;;;;;5009660;28;20181;-64
2022/08/21 09:43:57;;;;;;;4.30;3.90;;;29.20;44.80;;;;;;5007709;28;20179;-63
2022/08/21 09:46:26;;;;;;;5.10;3.83;;;28.90;45.80;;;;;;4997117;28;20447;-67
2022/08/21 09:48:55;;;;;;;5.77;4.53;;;28.60;46.40;;;;;;5003686;28;20479;-64
2022/08/21 09:51:25;;;;;;;4.80;4.00;;;28.10;46.80;;;;;;5009668;28;20468;-64
2022/08/21 09:54:03;;;;;;;4.10;3.70;;;27.70;48.90;;;;;;5004748;28;20476;-64
2022/08/21 09:59:33;;;;;;;4.77;4.20;;;28.00;48.10;;;;;;5005938;28;20861;-68
2022/08/21 10:02:01;;;;;;;6.10;4.13;;;28.70;47.20;;;;;;5001809;28;20823;-67
2022/08/21 10:04:34;;;;;;;5.43;4.13;;;28.70;46.10;;;;;;5015804;28;20455;-68
2022/08/21 10:07:12;;;;;;;4.70;4.17;;;29.00;46.80;;;;;;5003099;28;20449;-61
2022/08/21 10:09:38;;;;;;;6.00;3.30;;;28.70;46.20;;;;;;5007053;28;20467;-61
2022/08/21 10:12:03;;;;;;;5.37;3.43;;;28.50;46.90;;;;;;4999168;28;20449;-62
2022/08/21 10:15:03;;;;;;;4.33;3.80;;;28.10;47.40;;;;;;5001273;28;20190;-62
2022/08/21 10:17:43;;;;;;;5.27;3.77;;;28.10;47.70;;;;;;5000282;28;20940;-62
2022/08/21 10:20:16;;;;;;;6.47;3.70;;;28.00;47.80;;;;;;5002749;28;20463;-62
2022/08/21 10:23:03;;;;;;;5.03;4.07;;;27.80;48.70;;;;;;5003327;28;20515;-64
2022/08/21 10:25:35;;;;;;;5.57;4.00;;;27.60;48.30;;;;;;5023931;28;20839;-62
2022/08/21 10:28:20;;;;;;;4.60;4.20;;;27.40;49.30;;;;;;5008848;28;20462;-62
2022/08/21 10:30:59;;;;;;;4.67;4.20;;;27.40;48.80;;;;;;5009241;28;20464;-62
2022/08/21 10:33:26;;;;;;;5.23;3.70;;;27.10;49.70;;;;;;5005713;28;20473;-62
2022/08/21 10:35:51;;;;;;;5.63;3.97;;;27.10;49.40;;;;;;5008443;28;20426;-62
2022/08/21 10:38:17;;;;;;;5.17;4.50;;;27.20;49.50;;;;;;5009636;28;20480;-62
2022/08/21 10:40:49;;;;;;;4.10;3.80;;;27.30;50.00;;;;;;5010528;28;20187;-64
2022/08/21 10:43:35;;;;;;;5.90;4.53;;;27.20;50.00;;;;;;5003068;28;20511;-63
2022/08/21 10:46:15;;;;;;;4.70;3.47;;;27.10;49.90;;;;;;5005184;28;20441;-63
2022/08/21 10:49:03;;;;;;;4.63;3.80;;;27.10;50.10;;;;;;5007839;28;20913;-63
2022/08/21 10:51:41;;;;;;;7.97;4.40;;;27.20;49.80;;;;;;5005683;28;20831;-64
2022/08/21 10:54:25;;;;;;;5.40;4.37;;;27.10;49.40;;;;;;5002982;28;20979;-64
2022/08/21 10:57:01;;;;;;;4.20;3.80;;;27.00;50.50;;;;;;5003436;28;20425;-63
2022/08/21 10:59:38;;;;;;;6.20;4.33;;;26.90;50.10;;;;;;5006717;28;20497;-63
2022/08/21 11:02:25;;;;;;;5.50;3.77;;;26.70;50.30;;;;;;5006912;28;20478;-63
2022/08/21 11:05:32;;;;;;;7.30;3.83;;;26.70;51.00;;;;;;5013008;28;20467;-65
2022/08/21 11:08:06;;;;;;;4.93;3.90;;;26.70;50.90;;;;;;5009833;28;20830;-64
2022/08/21 11:10:51;;;;;;;6.27;4.50;;;26.60;50.80;;;;;;5013372;28;20443;-63
2022/08/21 11:13:35;;;;;;;6.30;4.20;;;26.60;50.60;;;;;;5009006;28;20441;-64
2022/08/21 11:16:10;;;;;;;4.97;4.13;;;26.40;51.00;;;;;;5009657;28;20516;-62
2022/08/21 11:18:48;;;;;;;6.70;4.40;;;26.70;51.30;;;;;;5013636;28;20464;-62
2022/08/21 11:21:34;;;;;;;4.33;3.97;;;27.00;50.60;;;;;;5010240;28;20445;-62
2022/08/21 11:24:04;;;;;;;3.80;3.50;;;27.10;50.60;;;;;;5012856;28;20476;-62
2022/08/21 11:26:51;;;;;;;5.60;3.97;;;27.30;49.90;;;;;;5006986;28;20461;-62
2022/08/21 11:29:31;;;;;;;6.43;4.10;;;27.80;50.20;;;;;;5012226;28;20450;-61
2022/08/21 11:32:24;;;;;;;6.80;4.73;;;27.20;50.00;;;;;;5010184;28;20452;-62
2022/08/21 11:34:58;;;;;;;6.53;5.93;;;27.10;50.20;;;;;;5012670;28;20570;-61
2022/08/21 11:37:44;;;;;;;7.30;4.50;;;26.90;50.70;;;;;;5012775;28;20954;-63
2022/08/21 11:40:13;;;;;;;6.30;4.50;;;26.90;50.80;;;;;;5006476;28;20483;-63
2022/08/21 11:43:05;;;;;;;5.67;4.50;;;26.90;50.80;;;;;;5009787;28;20958;-63
2022/08/21 11:46:05;;;;;;;4.70;4.07;;;26.80;51.20;;;;;;5010981;28;21099;-63
2022/08/21 11:49:13;;;;;;;6.80;4.30;;;26.70;51.00;;;;;;4930298;28;20846;-63
2022/08/21 11:51:43;;;;;;;5.13;4.27;;;26.60;50.80;;;;;;5009759;28;21012;-62
2022/08/21 11:54:38;;;;;;;4.30;3.90;;;26.50;50.40;;;;;;5012539;28;20444;-62
2022/08/21 11:57:18;;;;;;;5.10;3.77;;;26.60;50.90;;;;;;4989232;28;20520;-63
2022/08/21 12:00:08;;;;;;;3.87;3.53;;;26.60;51.00;;;;;;5009601;28;20453;-62
2022/08/21 12:02:38;;;;;;;4.93;4.30;;;26.60;51.90;;;;;;5014707;28;20488;-62
2022/08/21 12:05:08;;;;;;;6.80;4.00;;;26.50;51.90;;;;;;5013510;28;20433;-63
2022/08/21 12:07:40;;;;;;;3.77;3.43;;;26.50;51.30;;;;;;5009025;28;20517;-62
2022/08/21 12:10:10;;;;;;;8.93;5.03;;;26.40;51.50;;;;;;5008150;28;20473;-62
2022/08/21 12:12:45;;;;;;;4.70;3.90;;;26.30;51.40;;;;;;5012511;28;20464;-63
2022/08/21 12:15:23;;;;;;;4.40;4.00;;;26.30;51.40;;;;;;5011113;28;20562;-63
2022/08/21 12:18:00;;;;;;;6.70;4.40;;;26.20;50.70;;;;;;5010826;28;20455;-63
2022/08/21 12:20:36;;;;;;;5.57;3.93;;;26.30;51.40;;;;;;5013161;28;20593;-63
2022/08/21 12:23:17;;;;;;;5.97;5.37;;;26.30;51.00;;;;;;5005398;28;20449;-63
2022/08/21 12:26:13;;;;;;;5.53;4.00;;;26.60;50.70;;;;;;5012950;28;20432;-63
2022/08/21 12:28:40;;;;;;;4.40;4.00;;;26.80;50.40;;;;;;5011214;28;20892;-62
2022/08/21 12:31:21;;;;;;;7.60;4.60;;;27.00;50.10;;;;;;5009694;28;20528;-61
2022/08/21 12:33:56;;;;;;;4.97;3.93;;;27.20;49.30;;;;;;5012721;28;21004;-62
2022/08/21 12:36:28;;;;;;;4.40;4.00;;;27.30;49.00;;;;;;5011967;28;20449;-60
2022/08/21 12:39:02;;;;;;;5.57;4.13;;;27.40;49.70;;;;;;5011668;28;20481;-60
2022/08/21 12:41:33;;;;;;;4.30;3.90;;;27.60;48.50;;;;;;5010756;28;20449;-61
2022/08/21 12:44:08;;;;;;;5.10;4.30;;;27.80;48.30;;;;;;5012191;28;20433;-61
2022/08/21 12:46:46;;;;;;;4.43;4.03;;;27.90;48.20;;;;;;5010459;28;20581;-61
2022/08/21 12:49:28;;;;;;;4.80;4.40;;;28.10;47.80;;;;;;5004956;28;20477;-61
2022/08/21 12:52:06;;;;;;;4.50;3.60;;;28.20;47.90;;;;;;5008434;28;20496;-61
2022/08/21 12:54:39;;;;;;;4.53;4.13;;;28.20;46.50;;;;;;5010720;28;20465;-63
2022/08/21 12:57:06;;;;;;;3.90;3.50;;;28.00;46.90;;;;;;5011636;28;20445;-62
2022/08/21 12:59:32;;;;;;;4.33;3.93;;;28.10;47.10;;;;;;5010520;28;20472;-62
2022/08/21 13:02:02;;;;;;;5.90;3.90;;;28.20;47.00;;;;;;5010910;28;20450;-62
2022/08/21 13:04:40;;;;;;;4.00;3.70;;;28.30;47.00;;;;;;5011853;28;20934;-62
2022/08/21 13:07:11;;;;;;;5.03;4.50;;;28.10;46.70;;;;;;5005723;28;20576;-61